Carol Stream, Illinois
Current Conditions -  °F | °C
As of 11:52 PM on Sunday 19 Oct 2014 (Local Time) from KDPA Reporting Station
Clear Clear  
Wind Chill: 52°   Ceiling: Unl
Heat Index: 52°   Visibility: 10mi
Dew Point: 43°   Wind: 12mph
Humidity: 71%   Direction: 210°SSW
Pressure: 29.9"   Gusts: NA
Location:  41.92°N, 88.12°W
Report Text: KDPA 200452Z 21010KT 10SM CLR 11/06 A2990 RMK AO2 SLP126 T01110061
Loading
Personal Weather Stations






























Interactive Weather Map
Tropical Storm Tracking
New forecast layout! Learn more

10-Day Weather Forecast

Advertisements
Track Severe Weather on mobile